Time;durP1;ratioP1;P1;durP2;ratioP2;P2;SDS_P1;SDS_P2;PMS_P1;PMS_P2;Temp;Humidity;BMP_temperature;BMP_pressure;BME280_temperature;BME280_humidity;BME280_pressure;Samples;Min_cycle;Max_cycle;Signal;HPM_P1;HPM_P2
2022/02/01 00:04:01;;;;;;;54.25;29.98;;;;;;;11.67;52.94;100014.81;4973946;28;20050;-83
2022/02/01 00:09:56;;;;;;;55.08;30.83;;;;;;;11.07;49.75;100019.75;4975791;28;20046;-82
2022/02/01 00:19:08;;;;;;;45.92;22.20;;;;;;;10.94;53.26;100007.25;4949990;29;20036;-82
2022/02/01 00:34:26;;;;;;;45.78;25.58;;;;;;;11.08;52.90;99999.59;4960424;29;20061;-82
2022/02/01 00:37:17;;;;;;;38.25;21.83;;;;;;;11.22;54.33;100003.94;4972843;28;20050;-82
2022/02/01 00:40:09;;;;;;;35.95;19.58;;;;;;;11.28;54.56;100000.66;4967604;28;20049;-82
2022/02/01 00:42:55;;;;;;;36.33;19.73;;;;;;;11.32;54.78;100004.31;4972266;28;20043;-82
2022/02/01 00:45:40;;;;;;;36.88;18.45;;;;;;;11.36;56.94;100004.44;4971965;28;20043;-82
2022/02/01 00:48:25;;;;;;;;;;;;;;;11.31;56.42;100000.00;4973450;28;20050;-82
2022/02/01 00:51:12;;;;;;;34.33;18.05;;;;;;;11.32;56.16;99998.88;4976943;28;19914;-82
2022/02/01 00:53:57;;;;;;;33.58;17.00;;;;;;;11.45;57.36;100013.28;4974230;28;20045;-82
2022/02/01 00:56:42;;;;;;;;;;;;;;;11.52;57.42;100021.72;4961512;29;20432;-82
2022/02/01 00:59:27;;;;;;;31.45;17.92;;;;;;;11.43;54.59;100027.22;4976847;28;19914;-83
2022/02/01 01:02:12;;;;;;;;;;;;;;;11.32;50.76;100028.81;4976215;28;20047;-82
2022/02/01 01:04:56;;;;;;;33.95;18.17;;;;;;;11.29;50.28;100028.69;4973935;28;19914;-82
2022/02/01 01:07:41;;;;;;;39.22;19.65;;;;;;;11.33;50.99;100026.88;4976810;28;20043;-83
2022/02/01 01:10:26;;;;;;;;;;;;;;;11.31;51.44;100023.69;4975117;28;20047;-82
2022/02/01 01:13:39;;;;;;;33.08;17.08;;;;;;;11.25;51.14;100025.03;4972179;28;19922;-83
2022/02/01 01:43:56;;;;;;;21.67;9.98;;;;;;;11.45;51.17;100005.13;4973964;29;20061;-82
2022/02/01 01:55:53;;;;;;;15.40;8.30;;;;;;;11.80;51.17;100019.13;4972502;28;20062;-81
2022/02/01 01:58:38;;;;;;;13.70;7.15;;;;;;;11.77;49.76;100025.28;4984639;28;20043;-83
2022/02/01 02:01:23;;;;;;;13.40;6.97;;;;;;;11.63;49.45;100009.22;4991085;28;20061;-82
2022/02/01 02:04:09;;;;;;;;;;;;;;;11.72;50.89;100011.84;4985870;28;20054;-82
2022/02/01 02:06:54;;;;;;;13.13;6.80;;;;;;;11.68;51.91;100019.13;4958587;29;19915;-82
2022/02/01 02:09:39;;;;;;;11.18;5.85;;;;;;;11.61;50.59;100016.16;4985213;28;20050;-82
2022/02/01 02:15:49;;;;;;;10.32;5.88;;;;;;;11.72;42.61;100017.31;4959151;28;20030;-82
2022/02/01 02:18:35;;;;;;;11.23;6.25;;;;;;;11.67;45.08;100036.59;4989641;28;20045;-82
2022/02/01 02:21:21;;;;;;;11.73;6.43;;;;;;;11.78;51.82;100027.66;4983331;28;20046;-82
2022/02/01 02:24:08;;;;;;;11.60;6.93;;;;;;;11.87;54.39;100028.34;4986468;28;20047;-82
2022/02/01 02:26:53;;;;;;;12.65;6.97;;;;;;;11.87;55.21;100012.00;4986675;28;20053;-82
2022/02/01 02:29:37;;;;;;;;;;;;;;;11.88;47.75;100021.78;4989379;28;20054;-82
2022/02/01 02:32:24;;;;;;;10.32;6.75;;;;;;;11.88;53.20;100021.78;4983906;28;19914;-83
2022/02/01 02:35:10;;;;;;;10.98;6.10;;;;;;;11.95;54.75;100015.72;4976832;28;20053;-83
2022/02/01 02:37:55;;;;;;;6.47;4.13;;;;;;;11.88;55.67;100002.69;4981204;28;20041;-82
2022/02/01 02:46:40;;;;;;;7.15;4.22;;;;;;;11.83;55.24;99988.50;4976501;28;20042;-82
2022/02/01 02:49:25;;;;;;;9.35;5.35;;;;;;;11.81;56.25;99994.28;4979195;28;20054;-82
2022/02/01 02:52:10;;;;;;;;;;;;;;;11.86;56.26;99993.25;4978568;28;20057;-82
2022/02/01 02:54:58;;;;;;;11.82;5.68;;;;;;;11.83;56.29;100002.13;4973607;28;19918;-82
2022/02/01 02:57:43;;;;;;;12.52;4.57;;;;;;;11.89;55.90;100009.72;4984886;28;20045;-82
2022/02/01 03:00:27;;;;;;;9.40;4.32;;;;;;;11.92;56.19;100022.66;4999724;28;20505;-83
2022/02/01 03:03:12;;;;;;;;;;;;;;;11.95;55.30;100021.19;4995221;28;20049;-83
2022/02/01 03:05:57;;;;;;;8.57;4.90;;;;;;;11.88;56.03;100020.97;4973631;28;19915;-82
2022/02/01 03:08:42;;;;;;;6.47;3.58;;;;;;;11.87;56.10;100043.91;4976530;28;20050;-83
2022/02/01 03:11:27;;;;;;;3.80;2.33;;;;;;;11.88;55.69;100035.38;4975401;28;20542;-83
2022/02/01 03:17:27;;;;;;;4.43;2.70;;;;;;;11.73;52.31;100055.13;4978018;28;20049;-83
2022/02/01 03:20:13;;;;;;;5.03;2.70;;;;;;;11.78;52.79;100052.19;4974414;28;20057;-83
2022/02/01 03:22:58;;;;;;;4.93;2.72;;;;;;;11.84;53.49;100060.91;4978197;28;20054;-82
2022/02/01 03:25:43;;;;;;;5.22;2.53;;;;;;;11.93;53.64;100054.25;4970730;28;20062;-82
2022/02/01 03:28:28;;;;;;;3.53;2.58;;;;;;;11.81;52.66;100058.88;4974024;28;20066;-83
2022/02/01 03:31:13;;;;;;;;;;;;;;;11.85;52.81;100065.22;4976789;28;20045;-82
2022/02/01 03:33:58;;;;;;;5.15;2.22;;;;;;;11.74;51.77;100053.19;4976057;28;19914;-82
2022/02/01 03:36:43;;;;;;;2.33;1.35;;;;;;;11.74;51.76;100043.06;4973858;28;20053;-82
2022/02/01 03:39:27;;;;;;;5.00;2.13;;;;;;;11.79;52.30;100055.69;4975462;28;20041;-82
2022/02/01 03:42:13;;;;;;;;;;;;;;;11.84;51.95;100050.81;4978405;28;20045;-83
2022/02/01 03:44:58;;;;;;;2.20;1.30;;;;;;;11.67;49.46;100048.28;4974547;28;19914;-82
2022/02/01 03:47:42;;;;;;;;;;;;;;;11.69;51.14;100043.28;4972138;29;20050;-82
2022/02/01 03:50:27;;;;;;;5.97;1.73;;;;;;;11.64;50.45;100062.56;4976400;28;19914;-82
2022/02/01 03:53:13;;;;;;;3.40;1.73;;;;;;;11.73;52.53;100074.19;4979636;28;20042;-82
2022/02/01 03:55:57;;;;;;;3.78;1.95;;;;;;;11.76;52.42;100073.50;4972050;28;20057;-82
2022/02/01 03:58:42;;;;;;;;;;;;;;;11.80;51.72;100079.06;4976289;28;20050;-83
2022/02/01 04:01:29;;;;;;;2.92;1.50;;;;;;;11.69;51.76;100086.84;4983175;28;19914;-83
2022/02/01 04:04:13;;;;;;;3.35;1.42;;;;;;;11.70;51.74;100099.34;4983992;28;20076;-82
2022/02/01 04:06:59;;;;;;;;;;;;;;;11.69;47.60;100096.94;4991115;28;20053;-83
2022/02/01 04:09:43;;;;;;;3.60;1.90;;;;;;;11.69;49.57;100095.00;4990765;28;19918;-83
2022/02/01 04:12:29;;;;;;;;;;;;;;;11.69;49.47;100095.00;4989583;28;20069;-81
2022/02/01 04:15:14;;;;;;;2.17;1.30;;;;;;;11.63;49.34;100095.59;4982382;28;19914;-82
2022/02/01 04:17:59;;;;;;;3.22;1.40;;;;;;;11.47;45.18;100096.22;4989408;28;20049;-82
2022/02/01 04:20:45;;;;;;;1.83;1.00;;;;;;;11.49;45.45;100115.72;4974956;28;20053;-82
2022/02/01 04:23:30;;;;;;;1.70;1.17;;;;;;;11.37;47.01;100112.19;4977962;28;20050;-82
2022/02/01 04:26:15;;;;;;;3.55;1.27;;;;;;;11.36;47.63;100114.13;4973137;28;20057;-82
2022/02/01 04:29:00;;;;;;;;;;;;;;;11.47;50.01;100120.75;4973876;28;20046;-82
2022/02/01 04:31:44;;;;;;;2.65;1.48;;;;;;;11.42;51.75;100131.84;4983362;28;19914;-83
2022/02/01 04:34:29;;;;;;;2.58;1.10;;;;;;;11.48;53.72;100127.75;4994832;28;20045;-83
2022/02/01 04:37:14;;;;;;;1.27;0.77;;;;;;;11.41;50.21;100141.13;4993477;28;20053;-82
2022/02/01 04:40:00;;;;;;;5.30;1.00;;;;;;;11.39;49.44;100148.03;4989712;28;20553;-83
2022/02/01 04:42:45;;;;;;;1.33;0.70;;;;;;;11.38;49.05;100149.16;4973586;28;20058;-84
2022/02/01 04:45:30;;;;;;;1.48;0.82;;;;;;;11.42;50.05;100160.97;4987468;28;20053;-83
2022/02/01 04:48:15;;;;;;;2.53;0.98;;;;;;;11.42;51.25;100167.22;4999700;28;20049;-84
2022/02/01 04:51:00;;;;;;;;;;;;;;;11.42;50.07;100175.41;4981529;28;20053;-83
2022/02/01 04:53:46;;;;;;;1.33;0.95;;;;;;;11.38;50.55;100188.06;4983694;28;19914;-83
2022/02/01 04:56:31;;;;;;;1.42;1.20;;;;;;;11.35;50.69;100182.50;4981570;28;20058;-84
2022/02/01 04:59:16;;;;;;;1.52;1.00;;;;;;;11.37;54.02;100181.03;4975422;28;20041;-83
2022/02/01 05:02:01;;;;;;;1.70;0.95;;;;;;;11.35;54.97;100171.59;4970570;28;20051;-83
2022/02/01 05:04:46;;;;;;;4.95;1.58;;;;;;;11.23;52.24;100174.25;4974481;28;20046;-83
2022/02/01 05:07:30;;;;;;;4.13;0.77;;;;;;;11.02;50.73;100169.59;4972978;28;20049;-83
2022/02/01 05:10:16;;;;;;;2.70;0.73;;;;;;;11.19;52.59;100176.06;4969779;28;20058;-82
2022/02/01 05:16:11;;;;;;;3.03;1.52;;;;;;;11.02;50.35;100180.50;4966123;28;20053;-83
2022/02/01 05:19:05;;;;;;;1.63;1.02;;;;;;;10.96;49.11;100172.88;4995406;28;20045;-83
2022/02/01 05:21:51;;;;;;;2.33;1.23;;;;;;;10.84;46.46;100194.53;4996396;28;20076;-84
2022/02/01 05:24:38;;;;;;;2.65;0.98;;;;;;;10.66;45.46;100196.59;4986440;28;20049;-83
2022/02/01 05:27:27;;;;;;;1.35;0.70;;;;;;;10.69;46.69;100223.09;4973273;28;20054;-84
2022/02/01 05:30:13;;;;;;;6.28;1.17;;;;;;;10.75;48.14;100219.09;4974201;28;20049;-83
2022/02/01 05:32:58;;;;;;;1.40;0.70;;;;;;;10.76;48.75;100220.69;4965911;28;20053;-83
2022/02/01 05:35:43;;;;;;;0.75;0.60;;;;;;;10.74;49.76;100217.47;4972509;28;20053;-83
2022/02/01 05:38:28;;;;;;;1.52;0.60;;;;;;;10.97;51.03;100229.66;4973881;28;20041;-83
2022/02/01 05:41:13;;;;;;;0.75;0.45;;;;;;;10.89;49.33;100230.50;4972450;28;20057;-84
2022/02/01 05:43:58;;;;;;;;;;;;;;;10.81;48.83;100242.25;4975530;28;20046;-82
2022/02/01 05:46:42;;;;;;;0.60;0.50;;;;;;;10.63;47.03;100249.69;4969671;28;20295;-84
2022/02/01 05:49:27;;;;;;;9.27;0.95;;;;;;;10.53;48.41;100260.91;4961938;28;20508;-82
2022/02/01 05:52:13;;;;;;;9.95;0.90;;;;;;;10.81;52.10;100272.16;4961820;28;20054;-82
2022/02/01 05:54:57;;;;;;;4.60;1.25;;;;;;;10.75;50.33;100278.91;4956555;28;20065;-83
2022/02/01 05:57:43;;;;;;;;;;;;;;;10.70;49.27;100279.91;4945803;29;20054;-83
2022/02/01 06:00:28;;;;;;;4.03;1.35;;;;;;;10.82;51.79;100290.06;4938206;29;19919;-82
2022/02/01 06:03:14;;;;;;;18.73;1.42;;;;;;;10.94;51.35;100292.09;4941493;29;20067;-82
2022/02/01 06:06:01;;;;;;;5.53;0.82;;;;;;;11.01;52.62;100287.75;4938971;29;20061;-82
2022/02/01 06:08:45;;;;;;;10.70;1.23;;;;;;;11.07;52.09;100291.84;4945995;28;20455;-83
2022/02/01 06:11:30;;;;;;;5.53;1.45;;;;;;;11.07;52.37;100291.09;4960426;28;20054;-81
2022/02/01 06:14:15;;;;;;;1.75;0.68;;;;;;;11.10;51.96;100285.78;4955813;28;20050;-81
2022/02/01 06:17:00;;;;;;;4.35;0.70;;;;;;;10.79;50.68;100285.28;4953213;29;20058;-82
2022/02/01 06:19:47;;;;;;;5.38;1.30;;;;;;;10.80;50.28;100292.31;4952271;28;20514;-80
2022/02/01 06:22:32;;;;;;;4.78;1.20;;;;;;;11.01;52.61;100293.19;4958651;28;20535;-80
2022/02/01 06:25:26;;;;;;;5.53;1.40;;;;;;;11.05;52.32;100294.13;4955582;28;20050;-79
2022/02/01 06:28:11;;;;;;;5.18;1.60;;;;;;;11.06;52.10;100289.47;4959575;28;20054;-80
2022/02/01 06:30:56;;;;;;;2.33;0.55;;;;;;;11.12;52.63;100299.81;4952324;28;20058;-81
2022/02/01 06:33:41;;;;;;;3.75;0.57;;;;;;;11.22;54.57;100306.84;4946003;28;20062;-81
2022/02/01 06:36:26;;;;;;;2.35;0.88;;;;;;;11.24;55.21;100317.38;4965406;28;20050;-81
2022/02/01 06:39:11;;;;;;;11.20;1.67;;;;;;;11.28;56.41;100319.09;4958315;28;20050;-80
2022/02/01 06:41:56;;;;;;;6.25;1.83;;;;;;;11.26;55.52;100326.03;4954335;28;20070;-80
2022/02/01 06:44:41;;;;;;;9.18;1.98;;;;;;;11.27;56.33;100320.25;4962469;28;20058;-80
2022/02/01 06:47:26;;;;;;;;;;;;;;;11.19;55.35;100315.66;4961255;28;20062;-81
2022/02/01 06:50:31;;;;;;;12.43;2.72;;;;;;;11.19;57.06;100329.25;4964807;28;19918;-81
2022/02/01 06:53:18;;;;;;;10.35;1.95;;;;;;;11.19;57.26;100328.44;4963316;28;20054;-81
2022/02/01 06:56:13;;;;;;;11.32;2.72;;;;;;;11.17;57.90;100342.41;4962282;28;20062;-81
2022/02/01 06:59:02;;;;;;;13.65;2.70;;;;;;;11.17;58.75;100344.31;4964777;28;20050;-81
2022/02/01 07:01:47;;;;;;;11.65;2.50;;;;;;;11.18;58.84;100356.78;4961030;28;20062;-81
2022/02/01 07:04:32;;;;;;;10.18;2.20;;;;;;;11.19;58.97;100359.19;4946279;28;20528;-79
2022/02/01 07:07:17;;;;;;;;;;;;;;;11.24;59.48;100360.91;4963662;28;20050;-80
2022/02/01 07:10:02;;;;;;;17.00;3.00;;;;;;;11.27;59.54;100358.38;4963845;28;19919;-80
2022/02/01 07:12:47;;;;;;;12.65;3.42;;;;;;;11.37;59.63;100368.06;4958091;28;20050;-80
2022/02/01 07:15:32;;;;;;;9.95;2.28;;;;;;;11.33;59.33;100375.28;4957569;28;20046;-80
2022/02/01 07:18:16;;;;;;;11.32;2.38;;;;;;;11.31;59.39;100364.75;4954916;28;20067;-80
2022/02/01 07:21:02;;;;;;;19.52;2.75;;;;;;;11.31;59.45;100378.34;4955171;29;20046;-80
2022/02/01 07:23:47;;;;;;;14.57;2.60;;;;;;;11.30;59.89;100378.69;4964143;28;20058;-80
2022/02/01 07:26:32;;;;;;;18.23;3.35;;;;;;;11.30;60.07;100365.06;4964702;28;20050;-81
2022/02/01 07:29:17;;;;;;;20.08;2.95;;;;;;;11.26;60.30;100364.13;4962176;28;20054;-80
2022/02/01 07:32:02;;;;;;;;;;;;;;;11.32;60.53;100376.44;4960054;28;20070;-80
2022/02/01 07:34:47;;;;;;;17.88;3.60;;;;;;;11.25;60.80;100370.69;4962554;28;20399;-82
2022/02/01 07:37:33;;;;;;;7.50;2.53;;;;;;;11.28;60.45;100384.44;4955295;28;20058;-81
2022/02/01 07:40:18;;;;;;;10.43;2.58;;;;;;;11.22;56.69;100390.41;4955424;29;20051;-81
2022/02/01 07:43:03;;;;;;;8.88;1.73;;;;;;;10.87;48.84;100387.78;4958866;28;20054;-80
2022/02/01 07:45:49;;;;;;;;;;;;;;;10.71;51.81;100395.72;4953294;28;20046;-80
2022/02/01 07:48:34;;;;;;;15.60;2.38;;;;;;;10.71;50.85;100403.06;4950386;28;19922;-80
2022/02/01 07:51:19;;;;;;;7.18;1.58;;;;;;;10.87;56.88;100412.28;4961208;28;20050;-80
2022/02/01 07:54:04;;;;;;;8.07;1.80;;;;;;;10.89;58.00;100420.13;4952784;28;20069;-81
2022/02/01 07:56:49;;;;;;;4.30;1.88;;;;;;;10.88;57.87;100429.41;4953459;28;20054;-80
2022/02/01 07:59:34;;;;;;;3.45;1.50;;;;;;;10.89;55.89;100434.53;4962750;28;20599;-80
2022/02/01 08:02:23;;;;;;;6.75;2.08;;;;;;;10.97;57.33;100444.56;4956324;28;20054;-80
2022/02/01 08:05:08;;;;;;;6.95;2.13;;;;;;;10.99;58.62;100441.53;4959122;28;20046;-81
2022/02/01 08:07:54;;;;;;;5.22;2.40;;;;;;;10.97;53.49;100438.38;4962881;28;20050;-80
2022/02/01 08:10:44;;;;;;;10.13;1.90;;;;;;;10.65;44.58;100424.19;4961510;28;20531;-80
2022/02/01 08:14:39;;;;;;;4.22;1.98;;;;;;;10.56;41.67;100428.84;4958635;28;20526;-79
2022/02/01 08:16:48;;;;;;;4.40;1.95;;;;;;;10.33;42.54;100415.75;4955773;28;20543;-79
2022/02/01 08:19:43;;;;;;;9.63;2.85;;;;;;;10.34;42.91;100409.19;4946123;28;20046;-78
2022/02/01 08:25:26;;;;;;;4.45;2.22;;;;;;;10.38;44.71;100413.66;4955445;28;20058;-78
2022/02/01 08:28:12;;;;;;;4.65;1.70;;;;;;;10.49;50.93;100416.84;4952258;28;20420;-78
2022/02/01 08:30:56;;;;;;;6.15;2.38;;;;;;;10.57;53.98;100414.09;4958489;28;20054;-78
2022/02/01 08:33:42;;;;;;;5.80;1.52;;;;;;;10.64;56.70;100419.06;4936910;29;20531;-79
2022/02/01 08:36:27;;;;;;;9.68;3.35;;;;;;;10.70;57.89;100417.78;4935658;29;20054;-77
2022/02/01 08:39:12;;;;;;;9.45;1.90;;;;;;;10.61;58.01;100411.56;4954695;28;20046;-79
2022/02/01 08:41:57;;;;;;;3.38;1.48;;;;;;;10.59;55.47;100422.75;4954510;28;20058;-78
2022/02/01 08:44:43;;;;;;;5.28;1.45;;;;;;;10.69;57.77;100432.50;4954132;28;20070;-78
2022/02/01 08:47:28;;;;;;;3.58;1.70;;;;;;;10.67;50.58;100438.25;4958499;28;20519;-78
2022/02/01 08:50:13;;;;;;;6.88;1.52;;;;;;;10.68;53.77;100431.69;4948200;28;20562;-77
2022/02/01 08:53:09;;;;;;;5.85;1.60;;;;;;;10.68;53.62;100439.84;4947066;28;20050;-78
2022/02/01 08:58:39;;;;;;;4.40;1.65;;;;;;;10.75;55.02;100435.84;4950573;28;20050;-79
2022/02/01 09:01:24;;;;;;;5.88;1.20;;;;;;;10.72;52.96;100445.44;4948501;29;20046;-79
2022/02/01 09:04:08;;;;;;;;;;;;;;;10.56;47.30;100438.91;4950920;28;20054;-79
2022/02/01 09:06:53;;;;;;;5.57;1.52;;;;;;;10.59;53.25;100436.34;4946201;28;19915;-79
2022/02/01 09:09:38;;;;;;;;;;;;;;;10.66;54.64;100433.16;4951589;28;20042;-79
2022/02/01 09:12:23;;;;;;;6.75;1.90;;;;;;;10.58;52.77;100425.78;4954750;28;19914;-78
2022/02/01 09:15:08;;;;;;;1.77;0.93;;;;;;;10.55;51.15;100410.94;4951903;28;20534;-79
2022/02/01 09:17:55;;;;;;;5.80;1.70;;;;;;;10.67;53.23;100426.56;4949727;28;20408;-79
2022/02/01 09:20:39;;;;;;;9.55;1.63;;;;;;;10.69;53.99;100443.38;4951225;28;20046;-78
2022/02/01 09:23:24;;;;;;;3.40;1.10;;;;;;;10.71;53.21;100441.94;4946251;28;20086;-79
2022/02/01 09:26:09;;;;;;;4.77;1.40;;;;;;;10.78;53.15;100449.59;4954726;28;20527;-80
2022/02/01 09:28:54;;;;;;;9.07;0.82;;;;;;;10.78;49.57;100448.78;4942611;29;20302;-79
2022/02/01 09:31:38;;;;;;;1.58;0.80;;;;;;;10.82;53.37;100469.56;4939988;29;20083;-78
2022/02/01 09:34:24;;;;;;;4.20;1.10;;;;;;;10.85;53.08;100468.94;4936268;29;20408;-79
2022/02/01 09:37:09;;;;;;;7.03;1.00;;;;;;;10.81;52.00;100472.63;4935493;29;20168;-79
2022/02/01 09:39:54;;;;;;;1.73;0.77;;;;;;;10.78;50.60;100460.47;4939553;29;20117;-79
2022/02/01 09:42:39;;;;;;;7.28;2.22;;;;;;;10.87;52.44;100455.81;4939838;29;20412;-79
2022/02/01 09:45:25;;;;;;;1.90;1.17;;;;;;;10.83;49.98;100484.78;4939582;29;20054;-79
2022/02/01 09:48:10;;;;;;;3.90;1.08;;;;;;;10.87;50.94;100485.72;4941781;29;20047;-79
2022/02/01 09:50:55;;;;;;;2.80;0.65;;;;;;;10.90;50.85;100492.47;4939979;29;20417;-79
2022/02/01 09:53:40;;;;;;;2.38;0.98;;;;;;;10.94;51.70;100488.75;4936888;29;20058;-79
2022/02/01 09:56:25;;;;;;;5.75;1.30;;;;;;;11.00;50.79;100492.13;4947342;29;20051;-79
2022/02/01 09:59:16;;;;;;;17.88;1.25;;;;;;;11.04;49.92;100504.75;4956900;29;20531;-79
2022/02/01 10:02:12;;;;;;;4.07;1.02;;;;;;;11.18;52.18;100514.63;4954887;28;20054;-79
2022/02/01 10:05:03;;;;;;;5.55;1.27;;;;;;;11.26;52.40;100528.25;4952211;28;20629;-78
2022/02/01 10:07:56;;;;;;;4.22;1.17;;;;;;;11.34;52.48;100530.13;4951074;28;20412;-79
2022/02/01 10:10:41;;;;;;;5.22;1.35;;;;;;;11.37;51.55;100545.84;4959719;28;20415;-78
2022/02/01 10:13:26;;;;;;;2.58;1.02;;;;;;;11.42;48.99;100562.00;4957738;28;20408;-78
2022/02/01 10:16:27;;;;;;;3.80;1.05;;;;;;;11.55;50.02;100573.81;4955321;28;20062;-78
2022/02/01 10:19:13;;;;;;;2.25;0.98;;;;;;;11.65;50.81;100561.75;4961483;28;20050;-78
2022/02/01 10:22:00;;;;;;;6.43;0.63;;;;;;;11.67;50.07;100535.81;4957355;28;20050;-78
2022/02/01 10:24:44;;;;;;;2.25;0.98;;;;;;;11.70;50.46;100537.84;4946196;29;20532;-78
2022/02/01 10:27:31;;;;;;;4.55;1.00;;;;;;;11.72;49.15;100543.00;4956935;28;20054;-79
2022/02/01 10:30:19;;;;;;;2.85;0.88;;;;;;;11.76;50.85;100536.59;4957236;28;20054;-78
2022/02/01 10:35:58;;;;;;;1.95;0.98;;;;;;;11.91;49.68;100529.78;4960226;28;20042;-81
2022/02/01 10:38:43;;;;;;;2.93;1.80;;;;;;;11.90;50.03;100528.97;4953365;28;20050;-80
2022/02/01 10:41:28;;;;;;;3.10;0.85;;;;;;;11.89;51.32;100527.38;4960436;28;20290;-80
2022/02/01 10:44:12;;;;;;;3.40;1.08;;;;;;;11.85;48.12;100526.44;4964647;28;20046;-79
2022/02/01 10:46:56;;;;;;;3.35;1.50;;;;;;;11.91;50.33;100527.06;4962993;28;20050;-79
2022/02/01 10:49:41;;;;;;;3.30;1.00;;;;;;;11.90;49.26;100530.91;4950806;28;20070;-80
2022/02/01 10:52:26;;;;;;;;;;;;;;;11.96;49.69;100522.22;4957718;28;20054;-80
2022/02/01 10:55:12;;;;;;;3.20;1.10;;;;;;;11.97;50.27;100502.03;4962433;28;19914;-80
2022/02/01 10:57:56;;;;;;;1.58;0.70;;;;;;;12.02;50.13;100498.31;4959708;28;20046;-80
2022/02/01 11:00:46;;;;;;;11.02;0.63;;;;;;;12.08;50.27;100498.91;4955677;28;20047;-80
2022/02/01 11:03:32;;;;;;;1.50;0.90;;;;;;;12.12;51.22;100499.84;4958117;28;20062;-79
2022/02/01 11:06:17;;;;;;;3.30;0.85;;;;;;;12.17;52.43;100502.38;4956110;28;20050;-79
2022/02/01 11:09:03;;;;;;;1.10;0.90;;;;;;;12.22;50.63;100511.16;4961475;28;20534;-78
2022/02/01 11:11:55;;;;;;;6.75;1.02;;;;;;;12.27;50.35;100497.34;4958414;28;20049;-79
2022/02/01 11:14:41;;;;;;;1.83;0.52;;;;;;;12.23;48.03;100485.50;4955895;28;20046;-78
2022/02/01 11:17:39;;;;;;;1.63;0.85;;;;;;;12.33;51.75;100489.78;4957662;28;20050;-77
2022/02/01 11:20:29;;;;;;;1.48;0.75;;;;;;;12.35;52.87;100492.94;4957790;28;20125;-78
2022/02/01 11:23:22;;;;;;;2.30;0.90;;;;;;;12.34;52.14;100489.41;4960566;28;20058;-78
2022/02/01 11:26:22;;;;;;;2.70;0.85;;;;;;;12.40;51.21;100487.28;4956301;28;20046;-78
2022/02/01 11:32:18;;;;;;;1.60;0.80;;;;;;;12.42;52.16;100485.03;4964232;28;20526;-81
2022/02/01 11:35:09;;;;;;;3.97;0.90;;;;;;;12.42;50.28;100490.50;4960143;28;20050;-80
2022/02/01 11:38:04;;;;;;;1.27;0.52;;;;;;;12.31;42.34;100472.94;4965353;28;20501;-80
2022/02/01 11:40:59;;;;;;;4.70;0.68;;;;;;;12.41;51.24;100467.88;4951249;28;20050;-79
2022/02/01 11:43:45;;;;;;;;;;;;;;;12.42;52.00;100466.75;4951129;29;20046;-79
2022/02/01 11:46:29;;;;;;;0.52;0.30;;;;;;;12.35;47.69;100468.41;4962906;28;19915;-79
2022/02/01 11:49:22;;;;;;;0.20;0.17;;;;;;;12.41;45.85;100465.16;4961103;28;20050;-78
2022/02/01 11:52:14;;;;;;;1.08;0.50;;;;;;;12.46;49.36;100458.69;4958579;28;20817;-78
2022/02/01 11:55:06;;;;;;;3.65;0.47;;;;;;;12.53;51.70;100458.16;4961031;28;20054;-77
2022/02/01 11:57:53;;;;;;;1.67;0.60;;;;;;;12.57;50.95;100462.59;4957117;28;20050;-77
2022/02/01 12:00:40;;;;;;;2.58;1.02;;;;;;;12.59;50.85;100457.63;4957111;28;20056;-78
2022/02/01 12:03:37;;;;;;;2.95;0.60;;;;;;;12.55;44.78;100448.50;4955285;28;20050;-77
2022/02/01 12:06:22;;;;;;;3.42;0.80;;;;;;;12.61;51.55;100444.44;4953169;28;20054;-77
2022/02/01 12:09:19;;;;;;;6.63;0.80;;;;;;;13.13;35.66;100435.75;4955871;28;20054;-76
2022/02/01 12:12:04;;;;;;;0.38;0.30;;;;;;;13.24;28.36;100426.78;4956757;28;20054;-76
2022/02/01 12:14:56;;;;;;;1.10;0.45;;;;;;;13.57;29.08;100423.94;4948300;29;20055;-75
2022/02/01 12:17:49;;;;;;;0.90;0.40;;;;;;;13.75;28.75;100434.63;4948820;28;20514;-75
2022/02/01 12:20:38;;;;;;;1.45;0.43;;;;;;;13.90;26.73;100431.19;4953243;28;20119;-76
2022/02/01 12:23:24;;;;;;;4.20;0.30;;;;;;;13.97;27.75;100425.94;4950452;28;20058;-75
2022/02/01 12:26:23;;;;;;;0.28;0.20;;;;;;;13.90;26.17;100423.81;4951160;28;20408;-76
2022/02/01 12:29:13;;;;;;;0.43;0.20;;;;;;;13.97;24.99;100434.13;4949765;28;20066;-76
2022/02/01 12:32:05;;;;;;;1.55;0.43;;;;;;;14.01;25.29;100435.06;4959456;28;20055;-75
2022/02/01 12:34:51;;;;;;;132.43;5.53;;;;;;;14.18;26.90;100437.50;4950409;28;20526;-76
2022/02/01 12:37:35;;;;;;;0.82;0.47;;;;;;;14.41;26.29;100457.78;4955306;28;20038;-76
2022/02/01 12:40:23;;;;;;;0.32;0.20;;;;;;;14.30;23.56;100445.69;4953644;28;20467;-75
2022/02/01 12:43:13;;;;;;;1.75;0.40;;;;;;;14.31;24.37;100457.44;4957622;28;20543;-78
2022/02/01 12:46:16;;;;;;;1.48;0.60;;;;;;;14.74;33.73;100449.31;4949933;29;20054;-77
2022/02/01 12:49:02;;;;;;;0.50;0.50;;;;;;;14.37;30.28;100435.00;4958921;28;20526;-77
2022/02/01 12:51:49;;;;;;;2.45;0.45;;;;;;;14.33;30.33;100431.31;4956931;28;20042;-78
2022/02/01 12:54:38;;;;;;;2.88;0.63;;;;;;;14.19;29.08;100439.09;4955249;28;20046;-77
2022/02/01 12:57:22;;;;;;;2.88;1.15;;;;;;;14.49;29.50;100443.16;4954140;28;20066;-78
2022/02/01 13:00:15;;;;;;;;;;;;;;;14.33;28.12;100434.03;4948742;28;20051;-77
2022/02/01 13:03:02;;;;;;;109.63;4.50;;;;;;;14.38;28.52;100439.31;4950615;29;19914;-78
2022/02/01 13:05:55;;;;;;;1.42;0.50;;;;;;;14.77;31.90;100434.94;4957075;28;20035;-83
2022/02/01 13:15:25;;;;;;;9.48;3.38;;;;;;;15.58;30.89;100429.97;4952678;28;20070;-77
2022/02/01 13:21:12;;;;;;;14.85;1.45;;;;;;;15.96;24.99;100424.56;4957409;28;20046;-77
2022/02/01 13:23:59;;;;;;;15.52;1.85;;;;;;;16.52;27.68;100418.69;4951505;29;20046;-77
2022/02/01 13:26:45;;;;;;;105.65;16.55;;;;;;;17.03;28.02;100431.06;4958724;28;20058;-77
2022/02/01 13:29:30;;;;;;;50.08;10.10;;;;;;;17.43;28.22;100433.31;4957819;28;20496;-77
2022/02/01 13:32:15;;;;;;;;;;;;;;;17.85;27.53;100432.41;4956837;28;20043;-77
2022/02/01 13:35:04;;;;;;;15.68;2.53;;;;;;;18.27;25.44;100434.97;4958033;28;19918;-77
2022/02/01 13:37:49;;;;;;;11.15;1.35;;;;;;;18.34;24.73;100440.56;4959170;29;20424;-78
2022/02/01 13:40:34;;;;;;;;;;;;;;;18.28;21.49;100436.56;4957317;29;20054;-78
2022/02/01 13:43:25;;;;;;;3.92;1.08;;;;;;;18.55;24.78;100435.34;4961015;29;20358;-78
2022/02/01 13:46:18;;;;;;;5.78;1.35;;;;;;;18.72;25.32;100439.47;4953333;28;20530;-78
2022/02/01 13:49:10;;;;;;;2.65;0.98;;;;;;;18.89;24.60;100424.31;4937105;29;20058;-78
2022/02/01 13:51:56;;;;;;;1.75;0.75;;;;;;;18.78;19.91;100418.69;4940620;29;20067;-77
2022/02/01 13:54:41;;;;;;;;;;;;;;;19.10;22.11;100422.53;4942458;29;20062;-78
2022/02/01 13:57:29;;;;;;;3.13;0.80;;;;;;;19.19;23.87;100419.47;4946170;29;19915;-78
2022/02/01 14:00:14;;;;;;;1.60;0.60;;;;;;;19.13;21.26;100416.28;4945892;29;20043;-79
2022/02/01 14:03:21;;;;;;;12.88;0.93;;;;;;;19.14;21.36;100417.06;4943375;29;20120;-79
2022/02/01 14:06:25;;;;;;;2.30;0.63;;;;;;;19.27;21.61;100421.13;4944874;29;20047;-79
2022/02/01 14:25:26;;;;;;;0.82;0.50;;;;;;;19.55;23.85;100432.44;4958032;28;20053;-78
2022/02/01 14:27:48;;;;;;;0.80;0.57;;;;;;;19.64;22.66;100432.88;4954736;28;20046;-78
2022/02/01 14:33:30;;;;;;;2.80;0.75;;;;;;;19.27;21.95;100429.38;4955535;28;20054;-78
2022/02/01 14:36:16;;;;;;;3.92;0.63;;;;;;;19.28;23.42;100430.19;4951495;28;20046;-80
2022/02/01 14:39:10;;;;;;;2.80;0.55;;;;;;;19.23;20.00;100428.56;4958590;28;20050;-80
2022/02/01 14:44:58;;;;;;;1.95;0.55;;;;;;;18.73;19.00;100408.00;4956447;29;20046;-79
2022/02/01 14:47:44;;;;;;;2.88;0.52;;;;;;;18.49;19.04;100409.28;4965318;28;20407;-80
2022/02/01 14:50:29;;;;;;;4.20;0.68;;;;;;;18.31;19.25;100402.78;4963182;28;20047;-78
2022/02/01 14:53:13;;;;;;;3.03;0.47;;;;;;;18.23;19.57;100388.16;4961619;28;20503;-80
2022/02/01 14:56:11;;;;;;;;;;;;;;;18.08;19.04;100375.34;4962508;28;20062;-80
2022/02/01 15:05:18;;;;;;;0.57;0.30;;;;;;;17.70;18.77;100390.16;4954510;28;20054;-77
2022/02/01 15:13:55;;;;;;;0.90;0.43;;;;;;;17.40;19.20;100405.78;4953986;29;20038;-78